sensor_id;sensor_type;location;lat;lon;timestamp;temperature;humidity
73780;SHT30;62093;37.614;15.072;2023-05-29T00:01:26;19.27;66.39
73780;SHT30;62093;37.614;15.072;2023-05-29T00:03:52;19.27;66.48
73780;SHT30;62093;37.614;15.072;2023-05-29T00:06:19;19.25;66.50
73780;SHT30;62093;37.614;15.072;2023-05-29T00:08:45;19.26;66.48
73780;SHT30;62093;37.614;15.072;2023-05-29T00:11:11;19.23;66.55
73780;SHT30;62093;37.614;15.072;2023-05-29T00:13:37;19.22;66.52
73780;SHT30;62093;37.614;15.072;2023-05-29T00:16:03;19.20;66.58
73780;SHT30;62093;37.614;15.072;2023-05-29T00:18:30;19.20;66.60
73780;SHT30;62093;37.614;15.072;2023-05-29T00:20:56;19.19;66.63
73780;SHT30;62093;37.614;15.072;2023-05-29T00:23:22;19.19;66.58
73780;SHT30;62093;37.614;15.072;2023-05-29T00:25:48;19.18;66.65
73780;SHT30;62093;37.614;15.072;2023-05-29T00:28:15;19.19;66.62
73780;SHT30;62093;37.614;15.072;2023-05-29T00:30:41;19.15;66.67
73780;SHT30;62093;37.614;15.072;2023-05-29T00:33:07;19.16;66.69
73780;SHT30;62093;37.614;15.072;2023-05-29T00:35:34;19.15;66.67
73780;SHT30;62093;37.614;15.072;2023-05-29T00:38:00;19.16;66.70
73780;SHT30;62093;37.614;15.072;2023-05-29T00:40:26;19.15;66.68
73780;SHT30;62093;37.614;15.072;2023-05-29T00:42:52;19.12;66.73
73780;SHT30;62093;37.614;15.072;2023-05-29T00:45:19;19.12;66.74
73780;SHT30;62093;37.614;15.072;2023-05-29T00:47:46;19.14;66.76
73780;SHT30;62093;37.614;15.072;2023-05-29T00:50:13;19.14;66.78
73780;SHT30;62093;37.614;15.072;2023-05-29T00:52:40;19.12;66.78
73780;SHT30;62093;37.614;15.072;2023-05-29T00:55:07;19.11;66.83
73780;SHT30;62093;37.614;15.072;2023-05-29T00:57:35;19.11;66.83
73780;SHT30;62093;37.614;15.072;2023-05-29T01:00:06;19.11;66.84
73780;SHT30;62093;37.614;15.072;2023-05-29T01:02:43;19.14;66.80
73780;SHT30;62093;37.614;15.072;2023-05-29T01:05:13;19.08;66.83
73780;SHT30;62093;37.614;15.072;2023-05-29T01:07:43;19.09;66.88
73780;SHT30;62093;37.614;15.072;2023-05-29T01:10:09;19.06;66.84
73780;SHT30;62093;37.614;15.072;2023-05-29T01:13:08;19.05;66.84
73780;SHT30;62093;37.614;15.072;2023-05-29T01:18:54;19.08;66.79
73780;SHT30;62093;37.614;15.072;2023-05-29T01:29:23;19.05;66.74
73780;SHT30;62093;37.614;15.072;2023-05-29T01:31:51;19.05;66.74
73780;SHT30;62093;37.614;15.072;2023-05-29T01:34:19;19.05;66.74
73780;SHT30;62093;37.614;15.072;2023-05-29T01:36:45;19.02;66.75
73780;SHT30;62093;37.614;15.072;2023-05-29T01:39:12;19.05;66.75
73780;SHT30;62093;37.614;15.072;2023-05-29T01:41:38;19.06;66.73
73780;SHT30;62093;37.614;15.072;2023-05-29T01:44:07;19.02;66.73
73780;SHT30;62093;37.614;15.072;2023-05-29T01:46:39;19.04;66.71
73780;SHT30;62093;37.614;15.072;2023-05-29T01:49:07;19.02;66.69
73780;SHT30;62093;37.614;15.072;2023-05-29T01:51:34;19.02;66.68
73780;SHT30;62093;37.614;15.072;2023-05-29T01:54:01;19.04;66.70
73780;SHT30;62093;37.614;15.072;2023-05-29T01:56:28;19.01;66.66
73780;SHT30;62093;37.614;15.072;2023-05-29T01:58:56;19.01;66.69
73780;SHT30;62093;37.614;15.072;2023-05-29T02:01:23;19.02;66.69
73780;SHT30;62093;37.614;15.072;2023-05-29T02:03:49;18.98;66.66
73780;SHT30;62093;37.614;15.072;2023-05-29T02:06:17;18.98;66.71
73780;SHT30;62093;37.614;15.072;2023-05-29T02:08:43;19.01;66.69
73780;SHT30;62093;37.614;15.072;2023-05-29T02:11:09;18.99;66.70
73780;SHT30;62093;37.614;15.072;2023-05-29T02:13:37;18.98;66.69
73780;SHT30;62093;37.614;15.072;2023-05-29T02:16:03;18.98;66.69
73780;SHT30;62093;37.614;15.072;2023-05-29T02:18:29;18.98;66.67
73780;SHT30;62093;37.614;15.072;2023-05-29T02:20:55;18.95;66.70
73780;SHT30;62093;37.614;15.072;2023-05-29T02:23:21;18.95;66.69
73780;SHT30;62093;37.614;15.072;2023-05-29T02:25:50;18.95;66.72
73780;SHT30;62093;37.614;15.072;2023-05-29T02:28:16;18.95;66.68
73780;SHT30;62093;37.614;15.072;2023-05-29T02:30:42;18.94;66.75
73780;SHT30;62093;37.614;15.072;2023-05-29T02:33:08;18.96;66.78
73780;SHT30;62093;37.614;15.072;2023-05-29T02:35:34;18.94;66.83
73780;SHT30;62093;37.614;15.072;2023-05-29T02:38:00;18.94;66.69
73780;SHT30;62093;37.614;15.072;2023-05-29T02:40:27;18.92;66.80
73780;SHT30;62093;37.614;15.072;2023-05-29T02:42:53;18.92;66.79
73780;SHT30;62093;37.614;15.072;2023-05-29T02:45:19;18.92;66.80
73780;SHT30;62093;37.614;15.072;2023-05-29T02:47:45;18.91;66.85
73780;SHT30;62093;37.614;15.072;2023-05-29T02:50:11;18.91;66.76
73780;SHT30;62093;37.614;15.072;2023-05-29T02:52:40;18.91;66.79
73780;SHT30;62093;37.614;15.072;2023-05-29T02:55:07;18.92;66.80
73780;SHT30;62093;37.614;15.072;2023-05-29T02:57:33;18.89;66.86
73780;SHT30;62093;37.614;15.072;2023-05-29T02:59:59;18.87;66.87
73780;SHT30;62093;37.614;15.072;2023-05-29T03:02:26;18.88;66.93
73780;SHT30;62093;37.614;15.072;2023-05-29T03:04:52;18.87;66.86
73780;SHT30;62093;37.614;15.072;2023-05-29T03:07:19;18.85;66.93
73780;SHT30;62093;37.614;15.072;2023-05-29T03:09:45;18.85;66.90
73780;SHT30;62093;37.614;15.072;2023-05-29T03:12:12;18.83;66.89
73780;SHT30;62093;37.614;15.072;2023-05-29T03:14:38;18.84;66.94
73780;SHT30;62093;37.614;15.072;2023-05-29T03:17:09;18.84;66.94
73780;SHT30;62093;37.614;15.072;2023-05-29T03:19:35;18.84;66.92
73780;SHT30;62093;37.614;15.072;2023-05-29T03:22:01;18.83;66.97
73780;SHT30;62093;37.614;15.072;2023-05-29T03:24:29;18.81;66.92
73780;SHT30;62093;37.614;15.072;2023-05-29T03:26:55;18.81;66.96
73780;SHT30;62093;37.614;15.072;2023-05-29T03:29:23;18.83;66.99
73780;SHT30;62093;37.614;15.072;2023-05-29T03:31:50;18.81;67.01
73780;SHT30;62093;37.614;15.072;2023-05-29T03:34:23;18.81;66.97
73780;SHT30;62093;37.614;15.072;2023-05-29T03:36:56;18.76;67.05
73780;SHT30;62093;37.614;15.072;2023-05-29T03:39:24;18.76;67.03
73780;SHT30;62093;37.614;15.072;2023-05-29T03:41:50;18.76;67.04
73780;SHT30;62093;37.614;15.072;2023-05-29T03:44:17;18.75;67.05
73780;SHT30;62093;37.614;15.072;2023-05-29T03:46:44;18.78;67.15
73780;SHT30;62093;37.614;15.072;2023-05-29T03:49:11;18.78;66.99
73780;SHT30;62093;37.614;15.072;2023-05-29T03:51:37;18.75;67.04
73780;SHT30;62093;37.614;15.072;2023-05-29T03:54:04;18.74;67.06
73780;SHT30;62093;37.614;15.072;2023-05-29T03:56:32;18.75;67.07
73780;SHT30;62093;37.614;15.072;2023-05-29T03:58:58;18.76;67.05
73780;SHT30;62093;37.614;15.072;2023-05-29T04:01:24;18.76;67.07
73780;SHT30;62093;37.614;15.072;2023-05-29T04:03:50;18.72;67.05
73780;SHT30;62093;37.614;15.072;2023-05-29T04:06:16;18.74;67.07
73780;SHT30;62093;37.614;15.072;2023-05-29T04:08:42;18.74;67.06
73780;SHT30;62093;37.614;15.072;2023-05-29T04:11:09;18.74;66.87
73780;SHT30;62093;37.614;15.072;2023-05-29T04:13:37;18.79;66.40
73780;SHT30;62093;37.614;15.072;2023-05-29T04:16:06;18.76;66.46
73780;SHT30;62093;37.614;15.072;2023-05-29T04:18:32;18.79;66.43
73780;SHT30;62093;37.614;15.072;2023-05-29T04:20:59;18.78;66.38
73780;SHT30;62093;37.614;15.072;2023-05-29T04:23:26;18.78;66.36
73780;SHT30;62093;37.614;15.072;2023-05-29T04:25:53;18.83;66.28
73780;SHT30;62093;37.614;15.072;2023-05-29T04:28:24;18.84;66.18
73780;SHT30;62093;37.614;15.072;2023-05-29T04:30:51;18.85;66.25
73780;SHT30;62093;37.614;15.072;2023-05-29T04:33:19;18.87;66.24
73780;SHT30;62093;37.614;15.072;2023-05-29T04:35:49;18.85;66.18
73780;SHT30;62093;37.614;15.072;2023-05-29T04:38:16;18.88;66.25
73780;SHT30;62093;37.614;15.072;2023-05-29T04:40:44;18.88;66.19
73780;SHT30;62093;37.614;15.072;2023-05-29T04:43:12;18.94;66.20
73780;SHT30;62093;37.614;15.072;2023-05-29T04:46:01;18.89;66.26
73780;SHT30;62093;37.614;15.072;2023-05-29T04:48:29;18.89;66.20
73780;SHT30;62093;37.614;15.072;2023-05-29T04:50:55;18.89;66.20
73780;SHT30;62093;37.614;15.072;2023-05-29T04:53:23;18.91;66.25
73780;SHT30;62093;37.614;15.072;2023-05-29T04:55:49;18.92;66.16
73780;SHT30;62093;37.614;15.072;2023-05-29T04:58:15;18.95;66.13
73780;SHT30;62093;37.614;15.072;2023-05-29T05:00:42;18.92;66.14
73780;SHT30;62093;37.614;15.072;2023-05-29T05:03:09;18.94;66.15
73780;SHT30;62093;37.614;15.072;2023-05-29T05:05:37;18.95;66.13
73780;SHT30;62093;37.614;15.072;2023-05-29T05:08:04;18.96;66.15
73780;SHT30;62093;37.614;15.072;2023-05-29T05:10:30;18.98;66.16
73780;SHT30;62093;37.614;15.072;2023-05-29T05:12:56;18.96;66.13
73780;SHT30;62093;37.614;15.072;2023-05-29T05:15:22;18.96;66.11
73780;SHT30;62093;37.614;15.072;2023-05-29T05:17:48;18.98;66.07
73780;SHT30;62093;37.614;15.072;2023-05-29T05:20:16;18.98;66.06
73780;SHT30;62093;37.614;15.072;2023-05-29T05:22:45;19.01;66.03
73780;SHT30;62093;37.614;15.072;2023-05-29T05:25:11;19.01;65.97
73780;SHT30;62093;37.614;15.072;2023-05-29T05:27:37;19.02;66.02
73780;SHT30;62093;37.614;15.072;2023-05-29T05:30:04;18.99;65.97
73780;SHT30;62093;37.614;15.072;2023-05-29T05:32:30;19.02;65.97
73780;SHT30;62093;37.614;15.072;2023-05-29T05:35:04;19.04;65.97
73780;SHT30;62093;37.614;15.072;2023-05-29T05:37:30;19.01;65.98
73780;SHT30;62093;37.614;15.072;2023-05-29T05:39:57;19.05;65.92
73780;SHT30;62093;37.614;15.072;2023-05-29T05:42:24;19.05;65.91
73780;SHT30;62093;37.614;15.072;2023-05-29T05:44:57;19.08;65.94
73780;SHT30;62093;37.614;15.072;2023-05-29T05:47:24;19.06;65.93
73780;SHT30;62093;37.614;15.072;2023-05-29T05:49:50;19.09;65.89
73780;SHT30;62093;37.614;15.072;2023-05-29T05:52:18;19.08;65.84
73780;SHT30;62093;37.614;15.072;2023-05-29T05:54:44;19.09;65.83
73780;SHT30;62093;37.614;15.072;2023-05-29T05:57:13;19.14;65.84
73780;SHT30;62093;37.614;15.072;2023-05-29T05:59:39;19.11;65.87
73780;SHT30;62093;37.614;15.072;2023-05-29T06:02:06;19.12;65.81
73780;SHT30;62093;37.614;15.072;2023-05-29T06:04:32;19.15;65.85
73780;SHT30;62093;37.614;15.072;2023-05-29T06:06:58;19.14;65.84
73780;SHT30;62093;37.614;15.072;2023-05-29T06:09:25;19.15;65.79
73780;SHT30;62093;37.614;15.072;2023-05-29T06:11:52;19.14;65.77
73780;SHT30;62093;37.614;15.072;2023-05-29T06:14:18;19.15;65.75
73780;SHT30;62093;37.614;15.072;2023-05-29T06:16:45;19.16;65.75
73780;SHT30;62093;37.614;15.072;2023-05-29T06:19:11;19.16;65.69
73780;SHT30;62093;37.614;15.072;2023-05-29T06:21:51;19.16;65.57
73780;SHT30;62093;37.614;15.072;2023-05-29T06:24:17;19.20;65.56
73780;SHT30;62093;37.614;15.072;2023-05-29T06:26:43;19.18;65.57
73780;SHT30;62093;37.614;15.072;2023-05-29T06:29:11;19.19;65.49
73780;SHT30;62093;37.614;15.072;2023-05-29T06:31:38;19.19;65.37
73780;SHT30;62093;37.614;15.072;2023-05-29T06:34:05;19.20;65.34
73780;SHT30;62093;37.614;15.072;2023-05-29T06:36:31;19.20;65.32
73780;SHT30;62093;37.614;15.072;2023-05-29T06:38:58;19.23;65.30
73780;SHT30;62093;37.614;15.072;2023-05-29T06:41:24;19.20;65.26
73780;SHT30;62093;37.614;15.072;2023-05-29T06:43:50;19.23;65.15
73780;SHT30;62093;37.614;15.072;2023-05-29T06:46:17;19.25;65.16
73780;SHT30;62093;37.614;15.072;2023-05-29T06:48:43;19.26;65.02
73780;SHT30;62093;37.614;15.072;2023-05-29T06:51:09;19.25;65.01
73780;SHT30;62093;37.614;15.072;2023-05-29T06:53:41;19.25;65.05
73780;SHT30;62093;37.614;15.072;2023-05-29T06:56:09;19.25;64.93
73780;SHT30;62093;37.614;15.072;2023-05-29T06:58:35;19.26;65.04
73780;SHT30;62093;37.614;15.072;2023-05-29T07:01:01;19.27;64.89
73780;SHT30;62093;37.614;15.072;2023-05-29T07:03:32;19.26;65.10
73780;SHT30;62093;37.614;15.072;2023-05-29T07:05:58;19.26;65.02
73780;SHT30;62093;37.614;15.072;2023-05-29T07:08:25;19.27;65.00
73780;SHT30;62093;37.614;15.072;2023-05-29T07:10:52;19.29;65.19
73780;SHT30;62093;37.614;15.072;2023-05-29T07:13:20;19.27;65.12
73780;SHT30;62093;37.614;15.072;2023-05-29T07:15:48;19.29;65.08
73780;SHT30;62093;37.614;15.072;2023-05-29T07:18:14;19.29;65.17
73780;SHT30;62093;37.614;15.072;2023-05-29T07:20:41;19.29;65.26
73780;SHT30;62093;37.614;15.072;2023-05-29T07:23:11;19.32;65.21
73780;SHT30;62093;37.614;15.072;2023-05-29T07:25:37;19.32;65.20
73780;SHT30;62093;37.614;15.072;2023-05-29T07:28:03;19.32;65.26
73780;SHT30;62093;37.614;15.072;2023-05-29T07:30:29;19.35;65.25
73780;SHT30;62093;37.614;15.072;2023-05-29T07:32:55;19.33;65.29
73780;SHT30;62093;37.614;15.072;2023-05-29T07:35:22;19.33;65.30
73780;SHT30;62093;37.614;15.072;2023-05-29T07:37:48;19.33;65.28
73780;SHT30;62093;37.614;15.072;2023-05-29T07:40:16;19.36;65.26
73780;SHT30;62093;37.614;15.072;2023-05-29T07:43:00;19.35;65.23
73780;SHT30;62093;37.614;15.072;2023-05-29T07:45:38;19.39;65.23
73780;SHT30;62093;37.614;15.072;2023-05-29T07:48:05;19.35;65.23
73780;SHT30;62093;37.614;15.072;2023-05-29T07:50:31;19.36;65.20
73780;SHT30;62093;37.614;15.072;2023-05-29T07:52:57;19.37;65.19
73780;SHT30;62093;37.614;15.072;2023-05-29T07:55:23;19.39;65.16
73780;SHT30;62093;37.614;15.072;2023-05-29T07:57:50;19.40;65.20
73780;SHT30;62093;37.614;15.072;2023-05-29T08:00:16;19.37;65.24
73780;SHT30;62093;37.614;15.072;2023-05-29T14:20:27;20.20;63.53
73780;SHT30;62093;37.614;15.072;2023-05-29T14:22:52;20.20;63.57
73780;SHT30;62093;37.614;15.072;2023-05-29T14:25:19;20.18;63.57
73780;SHT30;62093;37.614;15.072;2023-05-29T14:27:44;20.20;63.54
73780;SHT30;62093;37.614;15.072;2023-05-29T14:30:11;20.20;63.54
73780;SHT30;62093;37.614;15.072;2023-05-29T14:32:37;20.18;63.55
73780;SHT30;62093;37.614;15.072;2023-05-29T14:35:03;20.21;63.54
73780;SHT30;62093;37.614;15.072;2023-05-29T14:37:29;20.18;63.56
73780;SHT30;62093;37.614;15.072;2023-05-29T14:39:55;20.20;63.55
73780;SHT30;62093;37.614;15.072;2023-05-29T14:42:20;20.20;63.56
73780;SHT30;62093;37.614;15.072;2023-05-29T14:44:47;20.20;63.57
73780;SHT30;62093;37.614;15.072;2023-05-29T14:47:13;20.18;63.58
73780;SHT30;62093;37.614;15.072;2023-05-29T14:49:39;20.20;63.61
73780;SHT30;62093;37.614;15.072;2023-05-29T14:52:04;20.20;63.60
73780;SHT30;62093;37.614;15.072;2023-05-29T14:54:30;20.17;63.59
73780;SHT30;62093;37.614;15.072;2023-05-29T14:56:56;20.20;63.62
73780;SHT30;62093;37.614;15.072;2023-05-29T14:59:23;20.20;63.58
73780;SHT30;62093;37.614;15.072;2023-05-29T15:01:49;20.20;63.60
73780;SHT30;62093;37.614;15.072;2023-05-29T15:04:16;20.18;63.62
73780;SHT30;62093;37.614;15.072;2023-05-29T15:06:42;20.20;63.60
73780;SHT30;62093;37.614;15.072;2023-05-29T15:09:08;20.18;63.60
73780;SHT30;62093;37.614;15.072;2023-05-29T15:11:33;20.18;63.60
73780;SHT30;62093;37.614;15.072;2023-05-29T15:13:59;20.20;63.58
73780;SHT30;62093;37.614;15.072;2023-05-29T15:16:25;20.20;63.65
73780;SHT30;62093;37.614;15.072;2023-05-29T15:18:51;20.18;63.63
73780;SHT30;62093;37.614;15.072;2023-05-29T15:21:17;20.20;63.65
73780;SHT30;62093;37.614;15.072;2023-05-29T15:23:43;20.20;63.64
73780;SHT30;62093;37.614;15.072;2023-05-29T15:26:10;20.20;63.64
73780;SHT30;62093;37.614;15.072;2023-05-29T15:28:35;20.18;63.66
73780;SHT30;62093;37.614;15.072;2023-05-29T15:31:01;20.20;63.68
73780;SHT30;62093;37.614;15.072;2023-05-29T15:33:27;20.18;63.66
73780;SHT30;62093;37.614;15.072;2023-05-29T15:35:53;20.18;63.65
73780;SHT30;62093;37.614;15.072;2023-05-29T15:38:19;20.17;63.63
73780;SHT30;62093;37.614;15.072;2023-05-29T15:40:45;20.18;63.69
73780;SHT30;62093;37.614;15.072;2023-05-29T15:43:11;20.20;63.67
73780;SHT30;62093;37.614;15.072;2023-05-29T15:45:37;20.18;63.66
73780;SHT30;62093;37.614;15.072;2023-05-29T15:48:04;20.20;63.65
73780;SHT30;62093;37.614;15.072;2023-05-29T15:50:30;20.20;63.69
73780;SHT30;62093;37.614;15.072;2023-05-29T15:52:56;20.20;63.64
73780;SHT30;62093;37.614;15.072;2023-05-29T15:55:25;20.20;63.67
73780;SHT30;62093;37.614;15.072;2023-05-29T15:57:51;20.18;63.68
73780;SHT30;62093;37.614;15.072;2023-05-29T16:00:17;20.20;63.63
73780;SHT30;62093;37.614;15.072;2023-05-29T16:02:43;20.22;63.70
73780;SHT30;62093;37.614;15.072;2023-05-29T16:05:09;20.21;63.65
73780;SHT30;62093;37.614;15.072;2023-05-29T16:07:36;20.22;63.67
73780;SHT30;62093;37.614;15.072;2023-05-29T16:10:03;20.22;63.64
73780;SHT30;62093;37.614;15.072;2023-05-29T16:12:29;20.21;63.69
73780;SHT30;62093;37.614;15.072;2023-05-29T16:14:57;20.22;63.67
73780;SHT30;62093;37.614;15.072;2023-05-29T16:17:25;20.20;63.68
73780;SHT30;62093;37.614;15.072;2023-05-29T16:19:51;20.21;63.71
73780;SHT30;62093;37.614;15.072;2023-05-29T16:22:22;20.21;63.64
73780;SHT30;62093;37.614;15.072;2023-05-29T16:24:48;20.21;63.71
73780;SHT30;62093;37.614;15.072;2023-05-29T16:27:14;20.21;63.70
73780;SHT30;62093;37.614;15.072;2023-05-29T16:29:40;20.20;63.75
73780;SHT30;62093;37.614;15.072;2023-05-29T16:32:06;20.21;63.74
73780;SHT30;62093;37.614;15.072;2023-05-29T16:34:31;20.20;63.73
73780;SHT30;62093;37.614;15.072;2023-05-29T16:36:57;20.20;63.76
73780;SHT30;62093;37.614;15.072;2023-05-29T16:39:23;20.21;63.78
73780;SHT30;62093;37.614;15.072;2023-05-29T16:41:52;20.21;63.80
73780;SHT30;62093;37.614;15.072;2023-05-29T16:44:18;20.20;63.79
73780;SHT30;62093;37.614;15.072;2023-05-29T16:46:44;20.18;63.79
73780;SHT30;62093;37.614;15.072;2023-05-29T16:49:10;20.20;63.82
73780;SHT30;62093;37.614;15.072;2023-05-29T16:51:36;20.22;63.86
73780;SHT30;62093;37.614;15.072;2023-05-29T16:54:01;20.22;63.81
73780;SHT30;62093;37.614;15.072;2023-05-29T16:56:27;20.17;63.81
73780;SHT30;62093;37.614;15.072;2023-05-29T16:58:53;20.22;63.84
73780;SHT30;62093;37.614;15.072;2023-05-29T17:01:19;20.18;63.84
73780;SHT30;62093;37.614;15.072;2023-05-29T17:03:45;20.20;63.88
73780;SHT30;62093;37.614;15.072;2023-05-29T17:06:11;20.17;63.85
73780;SHT30;62093;37.614;15.072;2023-05-29T17:08:37;20.18;63.90
73780;SHT30;62093;37.614;15.072;2023-05-29T17:11:03;20.20;63.86
73780;SHT30;62093;37.614;15.072;2023-05-29T17:13:29;20.18;63.91
73780;SHT30;62093;37.614;15.072;2023-05-29T17:15:55;20.17;63.90
73780;SHT30;62093;37.614;15.072;2023-05-29T17:18:21;20.17;63.92
73780;SHT30;62093;37.614;15.072;2023-05-29T17:20:47;20.17;63.89
73780;SHT30;62093;37.614;15.072;2023-05-29T17:23:13;20.17;63.94
73780;SHT30;62093;37.614;15.072;2023-05-29T17:25:39;20.15;63.90
73780;SHT30;62093;37.614;15.072;2023-05-29T17:28:06;20.20;63.90
73780;SHT30;62093;37.614;15.072;2023-05-29T17:30:36;20.17;63.95
73780;SHT30;62093;37.614;15.072;2023-05-29T17:33:02;20.17;63.97
73780;SHT30;62093;37.614;15.072;2023-05-29T17:35:29;20.15;63.97
73780;SHT30;62093;37.614;15.072;2023-05-29T17:37:55;20.17;64.01
73780;SHT30;62093;37.614;15.072;2023-05-29T17:40:21;20.13;63.97
73780;SHT30;62093;37.614;15.072;2023-05-29T17:42:47;20.15;64.00
73780;SHT30;62093;37.614;15.072;2023-05-29T17:45:13;20.17;63.99
73780;SHT30;62093;37.614;15.072;2023-05-29T17:47:39;20.14;64.01
73780;SHT30;62093;37.614;15.072;2023-05-29T17:50:06;20.13;64.07
73780;SHT30;62093;37.614;15.072;2023-05-29T17:52:33;20.13;64.04
73780;SHT30;62093;37.614;15.072;2023-05-29T17:54:59;20.14;64.04
73780;SHT30;62093;37.614;15.072;2023-05-29T17:57:25;20.14;64.08
73780;SHT30;62093;37.614;15.072;2023-05-29T17:59:51;20.15;64.08
73780;SHT30;62093;37.614;15.072;2023-05-29T18:02:17;20.13;64.09
73780;SHT30;62093;37.614;15.072;2023-05-29T18:04:44;20.13;64.10
73780;SHT30;62093;37.614;15.072;2023-05-29T18:07:14;20.13;64.13
73780;SHT30;62093;37.614;15.072;2023-05-29T18:09:45;20.10;64.14
73780;SHT30;62093;37.614;15.072;2023-05-29T18:12:12;20.14;64.15
73780;SHT30;62093;37.614;15.072;2023-05-29T18:14:38;20.11;64.18
73780;SHT30;62093;37.614;15.072;2023-05-29T18:17:05;20.11;64.15
73780;SHT30;62093;37.614;15.072;2023-05-29T18:19:32;20.11;64.18
73780;SHT30;62093;37.614;15.072;2023-05-29T18:21:58;20.13;64.16
73780;SHT30;62093;37.614;15.072;2023-05-29T18:24:23;20.10;64.17
73780;SHT30;62093;37.614;15.072;2023-05-29T18:26:50;20.08;64.18
73780;SHT30;62093;37.614;15.072;2023-05-29T18:29:15;20.10;64.22
73780;SHT30;62093;37.614;15.072;2023-05-29T18:31:41;20.11;64.23
73780;SHT30;62093;37.614;15.072;2023-05-29T18:34:07;20.07;64.23
73780;SHT30;62093;37.614;15.072;2023-05-29T18:36:33;20.10;64.24
73780;SHT30;62093;37.614;15.072;2023-05-29T18:39:00;20.10;64.23
73780;SHT30;62093;37.614;15.072;2023-05-29T18:41:26;20.08;64.27
73780;SHT30;62093;37.614;15.072;2023-05-29T18:43:53;20.08;64.28
73780;SHT30;62093;37.614;15.072;2023-05-29T18:46:19;20.07;64.29
73780;SHT30;62093;37.614;15.072;2023-05-29T18:48:46;20.05;64.32
73780;SHT30;62093;37.614;15.072;2023-05-29T18:51:12;20.08;64.29
73780;SHT30;62093;37.614;15.072;2023-05-29T18:53:38;20.05;64.31
73780;SHT30;62093;37.614;15.072;2023-05-29T18:56:10;20.05;64.40
73780;SHT30;62093;37.614;15.072;2023-05-29T18:58:35;20.04;64.36
73780;SHT30;62093;37.614;15.072;2023-05-29T19:01:01;20.04;64.41
73780;SHT30;62093;37.614;15.072;2023-05-29T19:03:27;20.08;64.41
73780;SHT30;62093;37.614;15.072;2023-05-29T19:05:53;20.05;64.39
73780;SHT30;62093;37.614;15.072;2023-05-29T19:08:19;20.07;64.39
73780;SHT30;62093;37.614;15.072;2023-05-29T19:10:46;20.07;64.40
73780;SHT30;62093;37.614;15.072;2023-05-29T19:13:12;20.04;64.45
73780;SHT30;62093;37.614;15.072;2023-05-29T19:15:38;20.07;64.46
73780;SHT30;62093;37.614;15.072;2023-05-29T19:18:05;20.07;64.50
73780;SHT30;62093;37.614;15.072;2023-05-29T19:20:30;20.07;64.50
73780;SHT30;62093;37.614;15.072;2023-05-29T19:22:56;20.04;64.53
73780;SHT30;62093;37.614;15.072;2023-05-29T19:25:23;20.04;64.55
73780;SHT30;62093;37.614;15.072;2023-05-29T19:27:49;20.04;64.54
73780;SHT30;62093;37.614;15.072;2023-05-29T19:30:17;20.05;64.55
73780;SHT30;62093;37.614;15.072;2023-05-29T19:32:44;20.03;64.55
73780;SHT30;62093;37.614;15.072;2023-05-29T19:35:11;20.04;64.56
73780;SHT30;62093;37.614;15.072;2023-05-29T19:37:37;20.04;64.60
73780;SHT30;62093;37.614;15.072;2023-05-29T19:40:04;20.05;64.64
73780;SHT30;62093;37.614;15.072;2023-05-29T19:42:31;20.03;64.68
73780;SHT30;62093;37.614;15.072;2023-05-29T19:44:57;20.03;64.70
73780;SHT30;62093;37.614;15.072;2023-05-29T19:47:23;20.00;64.75
73780;SHT30;62093;37.614;15.072;2023-05-29T19:49:49;20.00;64.81
73780;SHT30;62093;37.614;15.072;2023-05-29T19:52:15;20.03;65.07
73780;SHT30;62093;37.614;15.072;2023-05-29T19:54:42;20.01;65.14
73780;SHT30;62093;37.614;15.072;2023-05-29T19:57:08;20.03;65.06
73780;SHT30;62093;37.614;15.072;2023-05-29T19:59:34;19.97;64.95
73780;SHT30;62093;37.614;15.072;2023-05-29T20:02:01;20.00;64.93
73780;SHT30;62093;37.614;15.072;2023-05-29T20:04:29;20.00;64.94
73780;SHT30;62093;37.614;15.072;2023-05-29T20:06:56;20.00;64.93
73780;SHT30;62093;37.614;15.072;2023-05-29T20:09:22;19.98;64.96
73780;SHT30;62093;37.614;15.072;2023-05-29T20:11:50;19.97;65.02
73780;SHT30;62093;37.614;15.072;2023-05-29T20:14:16;19.97;64.92
73780;SHT30;62093;37.614;15.072;2023-05-29T20:16:42;19.97;64.94
73780;SHT30;62093;37.614;15.072;2023-05-29T20:19:08;19.95;64.96
73780;SHT30;62093;37.614;15.072;2023-05-29T20:21:35;19.95;64.95
73780;SHT30;62093;37.614;15.072;2023-05-29T20:24:02;19.95;65.00
73780;SHT30;62093;37.614;15.072;2023-05-29T20:26:28;19.94;65.04
73780;SHT30;62093;37.614;15.072;2023-05-29T20:28:58;19.95;65.00
73780;SHT30;62093;37.614;15.072;2023-05-29T20:31:23;19.95;65.04
73780;SHT30;62093;37.614;15.072;2023-05-29T20:33:51;19.95;65.03
73780;SHT30;62093;37.614;15.072;2023-05-29T20:36:17;19.94;65.10
73780;SHT30;62093;37.614;15.072;2023-05-29T20:38:45;19.91;65.05
73780;SHT30;62093;37.614;15.072;2023-05-29T20:41:15;19.91;65.08
73780;SHT30;62093;37.614;15.072;2023-05-29T20:43:41;19.93;65.12
73780;SHT30;62093;37.614;15.072;2023-05-29T20:46:12;19.93;65.14
73780;SHT30;62093;37.614;15.072;2023-05-29T20:48:38;19.93;65.15
73780;SHT30;62093;37.614;15.072;2023-05-29T20:51:04;19.90;65.15
73780;SHT30;62093;37.614;15.072;2023-05-29T20:53:30;19.88;65.19
73780;SHT30;62093;37.614;15.072;2023-05-29T20:55:56;19.88;65.22
73780;SHT30;62093;37.614;15.072;2023-05-29T20:58:21;19.88;65.20
73780;SHT30;62093;37.614;15.072;2023-05-29T21:00:47;19.87;65.22
73780;SHT30;62093;37.614;15.072;2023-05-29T21:03:13;19.86;65.27
73780;SHT30;62093;37.614;15.072;2023-05-29T21:05:39;19.87;65.26
73780;SHT30;62093;37.614;15.072;2023-05-29T21:08:06;19.87;65.33
73780;SHT30;62093;37.614;15.072;2023-05-29T21:10:33;19.84;65.30
73780;SHT30;62093;37.614;15.072;2023-05-29T21:12:59;19.86;65.36
73780;SHT30;62093;37.614;15.072;2023-05-29T21:15:25;19.86;65.34
73780;SHT30;62093;37.614;15.072;2023-05-29T21:17:51;19.84;65.40
73780;SHT30;62093;37.614;15.072;2023-05-29T21:20:17;19.87;65.39
73780;SHT30;62093;37.614;15.072;2023-05-29T21:22:43;19.83;65.42
73780;SHT30;62093;37.614;15.072;2023-05-29T21:25:09;19.83;65.42
73780;SHT30;62093;37.614;15.072;2023-05-29T21:27:35;19.83;65.46
73780;SHT30;62093;37.614;15.072;2023-05-29T21:30:00;19.83;65.50
73780;SHT30;62093;37.614;15.072;2023-05-29T21:32:27;19.81;65.46
73780;SHT30;62093;37.614;15.072;2023-05-29T21:34:54;19.83;65.45
73780;SHT30;62093;37.614;15.072;2023-05-29T21:37:21;19.83;65.47
73780;SHT30;62093;37.614;15.072;2023-05-29T21:39:48;19.80;65.52
73780;SHT30;62093;37.614;15.072;2023-05-29T21:42:15;19.80;65.55